createdAt,value
2023-03-28T00:01:32.189Z,5.97
2023-03-28T00:04:05.049Z,5.85
2023-03-28T00:06:35.035Z,5.75
2023-03-28T00:09:04.514Z,5.87
2023-03-28T00:11:34.684Z,5.77
2023-03-28T00:14:05.300Z,5.89
2023-03-28T00:16:36.667Z,5.88
2023-03-28T00:19:11.837Z,5.78
2023-03-28T00:21:47.613Z,5.76
2023-03-28T00:24:21.435Z,5.91
2023-03-28T00:26:54.860Z,5.84
2023-03-28T00:29:26.388Z,5.76
2023-03-28T00:31:55.740Z,5.81
2023-03-28T00:34:27.921Z,5.82
2023-03-28T00:36:57.249Z,5.79
2023-03-28T00:39:27.889Z,5.82
2023-03-28T00:41:57.549Z,5.63
2023-03-28T00:44:46.253Z,5.58
2023-03-28T00:47:27.340Z,5.53
2023-03-28T00:50:03.698Z,5.70
2023-03-28T00:52:39.219Z,5.69
2023-03-28T00:55:13.725Z,5.76
2023-03-28T00:57:43.621Z,5.68
2023-03-28T01:00:17.086Z,5.53
2023-03-28T01:02:51.476Z,5.57
2023-03-28T01:05:27.759Z,5.60
2023-03-28T01:08:01.543Z,5.65
2023-03-28T01:10:31.132Z,5.60
2023-03-28T01:13:01.741Z,5.60
2023-03-28T01:15:32.765Z,5.53
2023-03-28T01:18:10.860Z,5.40
2023-03-28T01:21:08.686Z,5.54
2023-03-28T01:24:12.640Z,5.57
2023-03-28T01:26:50.474Z,5.44
2023-03-28T01:30:01.078Z,5.40
2023-03-28T01:33:06.780Z,5.51
2023-03-28T01:36:06.698Z,5.34
2023-03-28T01:38:43.683Z,5.45
2023-03-28T01:41:22.452Z,5.39
2023-03-28T01:44:00.478Z,5.27
2023-03-28T01:46:34.242Z,5.37
2023-03-28T01:49:11.706Z,5.32
2023-03-28T01:51:58.743Z,5.42
2023-03-28T01:54:36.302Z,5.36
2023-03-28T01:57:13.651Z,5.35
2023-03-28T01:59:46.638Z,5.34
2023-03-28T02:02:23.232Z,5.36
2023-03-28T02:04:57.202Z,5.22
2023-03-28T02:07:28.920Z,5.32
2023-03-28T02:10:02.014Z,5.34
2023-03-28T02:12:37.252Z,5.40
2023-03-28T02:15:12.861Z,5.28
2023-03-28T02:17:46.555Z,5.31
2023-03-28T02:20:19.916Z,5.38
2023-03-28T02:22:54.116Z,5.40
2023-03-28T02:25:26.568Z,5.35
2023-03-28T02:28:00.549Z,5.30
2023-03-28T02:30:30.238Z,5.22
2023-03-28T02:33:03.828Z,5.19
2023-03-28T02:35:49.015Z,5.14
2023-03-28T02:38:27.267Z,5.16
2023-03-28T02:41:08.007Z,5.14
2023-03-28T02:43:55.260Z,5.17
2023-03-28T02:46:39.226Z,5.15
2023-03-28T02:49:23.230Z,5.13
2023-03-28T02:52:00.968Z,5.03
2023-03-28T02:54:37.262Z,4.98
2023-03-28T02:57:16.786Z,5.00
2023-03-28T02:59:52.770Z,4.97
2023-03-28T03:02:23.787Z,4.96
2023-03-28T03:04:57.811Z,4.94
2023-03-28T03:07:27.925Z,4.92
2023-03-28T03:09:57.548Z,4.92
2023-03-28T03:12:29.518Z,4.97
2023-03-28T03:15:01.284Z,4.90
2023-03-28T03:17:31.182Z,4.92
2023-03-28T03:20:06.693Z,4.85
2023-03-28T03:22:36.580Z,4.88
2023-03-28T03:25:08.482Z,4.92
2023-03-28T03:27:41.135Z,4.89
2023-03-28T03:30:12.042Z,4.93
2023-03-28T03:32:41.471Z,4.76
2023-03-28T03:35:10.989Z,4.90
2023-03-28T03:37:40.423Z,4.81
2023-03-28T03:40:11.628Z,4.77
2023-03-28T03:42:43.645Z,4.76
2023-03-28T03:45:14.007Z,4.80
2023-03-28T03:47:43.352Z,4.71
2023-03-28T03:50:14.021Z,4.47
2023-03-28T03:52:43.368Z,4.72
2023-03-28T03:55:12.709Z,4.65
2023-03-28T03:57:44.630Z,4.72
2023-03-28T04:00:17.102Z,4.70
2023-03-28T04:02:46.985Z,4.61
2023-03-28T04:05:16.384Z,4.62
2023-03-28T04:07:46.358Z,4.70
2023-03-28T04:10:15.944Z,4.63
2023-03-28T04:12:48.152Z,4.51
2023-03-28T04:15:17.927Z,4.55
2023-03-28T04:17:50.482Z,4.61
2023-03-28T04:20:21.317Z,4.63
2023-03-28T04:22:50.928Z,4.54
2023-03-28T04:25:20.608Z,4.47
2023-03-28T04:27:54.890Z,4.33
2023-03-28T04:30:25.992Z,4.40
2023-03-28T04:32:55.439Z,4.39
2023-03-28T04:35:25.685Z,4.20
2023-03-28T04:37:57.978Z,4.29
2023-03-28T04:40:28.769Z,4.24
2023-03-28T04:43:00.731Z,4.27
2023-03-28T04:45:30.315Z,4.31
2023-03-28T04:47:59.712Z,4.21
2023-03-28T04:50:29.145Z,4.29
2023-03-28T04:52:58.470Z,4.25
2023-03-28T04:55:28.744Z,4.28
2023-03-28T04:58:01.047Z,4.30
2023-03-28T05:00:30.651Z,4.26
2023-03-28T05:03:01.005Z,4.25
2023-03-28T05:05:30.697Z,4.23
2023-03-28T05:08:00.923Z,4.28
2023-03-28T05:10:30.407Z,4.20
2023-03-28T05:13:03.639Z,4.19
2023-03-28T05:15:33.044Z,4.19
2023-03-28T05:18:03.948Z,4.18
2023-03-28T05:20:33.972Z,4.22
2023-03-28T05:23:03.835Z,4.11
2023-03-28T05:25:33.270Z,4.13
2023-03-28T05:28:05.625Z,4.11
2023-03-28T05:30:34.971Z,4.13
2023-03-28T05:33:04.476Z,4.13
2023-03-28T05:35:34.060Z,4.20
2023-03-28T05:38:03.404Z,4.21
2023-03-28T05:40:32.898Z,4.13
2023-03-28T05:43:06.178Z,4.14
2023-03-28T05:45:35.693Z,4.18
2023-03-28T05:48:05.164Z,4.15
2023-03-28T05:50:34.541Z,4.25
2023-03-28T05:53:04.029Z,4.18
2023-03-28T05:55:35.432Z,4.17
2023-03-28T05:58:07.985Z,4.21
2023-03-28T06:00:37.478Z,4.16
2023-03-28T06:03:07.947Z,4.20
2023-03-28T06:05:37.876Z,4.21
2023-03-28T06:08:09.484Z,4.19
2023-03-28T06:10:39.087Z,4.29
2023-03-28T06:13:11.750Z,4.20
2023-03-28T06:15:41.613Z,4.22
2023-03-28T06:18:11.006Z,4.30
2023-03-28T06:20:40.391Z,4.23
2023-03-28T06:23:09.720Z,4.26
2023-03-28T06:25:39.054Z,4.20
2023-03-28T06:28:11.365Z,4.23
2023-03-28T06:30:41.700Z,4.27
2023-03-28T06:33:11.132Z,4.31
2023-03-28T06:35:40.582Z,4.33
2023-03-28T06:38:10.011Z,4.26
2023-03-28T06:40:39.355Z,4.16
2023-03-28T06:43:11.332Z,4.17
2023-03-28T06:45:41.108Z,4.23
2023-03-28T06:48:10.939Z,4.36
2023-03-28T06:50:40.336Z,4.23
2023-03-28T06:53:09.703Z,4.25
2023-03-28T06:55:39.204Z,4.30
2023-03-28T06:58:11.401Z,4.35
2023-03-28T07:00:41.460Z,4.40
2023-03-28T07:03:11.203Z,4.40
2023-03-28T07:05:42.488Z,4.39
2023-03-28T07:08:13.210Z,4.39
2023-03-28T07:10:44.033Z,4.52
2023-03-28T07:13:16.888Z,4.58
2023-03-28T07:15:47.247Z,4.52
2023-03-28T07:18:16.614Z,4.64
2023-03-28T07:20:51.982Z,4.52
2023-03-28T07:23:30.915Z,4.61
2023-03-28T07:26:00.275Z,4.70
2023-03-28T07:28:32.216Z,4.81
2023-03-28T07:31:04.749Z,4.83
2023-03-28T07:33:37.287Z,4.82
2023-03-28T07:36:12.707Z,4.91
2023-03-28T07:38:42.186Z,4.93
2023-03-28T07:41:11.633Z,4.90
2023-03-28T07:43:43.574Z,4.97
2023-03-28T07:46:15.211Z,5.01
2023-03-28T07:48:46.742Z,5.08
2023-03-28T07:51:16.747Z,5.06
2023-03-28T07:53:46.433Z,4.99
2023-03-28T07:56:15.794Z,5.12
2023-03-28T07:58:48.615Z,5.14
2023-03-28T08:01:18.944Z,5.23
2023-03-28T08:03:48.438Z,5.24
2023-03-28T08:06:31.466Z,5.18
2023-03-28T08:09:03.294Z,5.30
2023-03-28T08:11:32.594Z,5.39
2023-03-28T08:14:05.006Z,5.38
2023-03-28T08:16:34.721Z,5.53
2023-03-28T08:21:39.383Z,5.63
2023-03-28T08:24:14.052Z,5.59
2023-03-28T08:26:48.697Z,5.69
2023-03-28T08:29:20.752Z,5.80
2023-03-28T08:31:50.825Z,5.82
2023-03-28T08:34:20.440Z,5.95
2023-03-28T08:36:49.986Z,6.03
2023-03-28T08:39:19.397Z,6.03
2023-03-28T08:42:05.907Z,6.04
2023-03-28T08:44:51.100Z,6.12
2023-03-28T08:47:25.489Z,6.19
2023-03-28T08:49:59.708Z,6.22
2023-03-28T08:52:30.552Z,6.20
2023-03-28T08:55:03.305Z,6.29
2023-03-28T08:57:35.703Z,6.29
2023-03-28T09:00:17.263Z,6.37
2023-03-28T09:02:48.599Z,6.31
2023-03-28T09:05:23.689Z,6.44
2023-03-28T09:07:59.958Z,6.41
2023-03-28T09:10:34.181Z,6.46
2023-03-28T09:13:17.325Z,6.49
2023-03-28T09:16:09.089Z,6.56
2023-03-28T09:18:58.067Z,6.60
2023-03-28T09:21:34.058Z,6.61
2023-03-28T09:24:19.870Z,6.66
2023-03-28T09:26:54.849Z,6.61
2023-03-28T09:29:29.714Z,6.83
2023-03-28T09:32:06.370Z,6.88
2023-03-28T09:34:41.127Z,6.87
2023-03-28T09:37:21.594Z,6.89
2023-03-28T09:39:53.963Z,6.84
2023-03-28T09:42:32.930Z,6.95
2023-03-28T09:45:08.042Z,7.11
2023-03-28T09:47:40.201Z,7.14
2023-03-28T09:50:14.088Z,7.16
2023-03-28T09:52:43.708Z,7.12
2023-03-28T09:55:19.639Z,7.15
2023-03-28T09:58:05.214Z,7.42
2023-03-28T10:00:39.122Z,7.28
2023-03-28T10:03:23.360Z,7.36
2023-03-28T10:05:53.750Z,7.37
2023-03-28T10:08:28.915Z,7.26
2023-03-28T10:11:03.341Z,7.29
2023-03-28T10:13:40.492Z,7.30
2023-03-28T10:16:13.090Z,7.27
2023-03-28T10:18:45.995Z,7.27
2023-03-28T10:21:19.576Z,7.31
2023-03-28T10:23:55.476Z,7.32
2023-03-28T10:26:27.609Z,7.28
2023-03-28T10:29:03.714Z,7.20
2023-03-28T10:31:36.803Z,7.15
2023-03-28T10:34:08.934Z,7.08
2023-03-28T10:36:44.641Z,6.81
2023-03-28T10:39:24.865Z,6.73
2023-03-28T10:41:58.686Z,6.64
2023-03-28T10:44:30.560Z,6.80
2023-03-28T10:47:04.202Z,6.86
2023-03-28T10:49:43.818Z,6.85
2023-03-28T10:52:25.389Z,6.82
2023-03-28T10:55:06.459Z,6.81
2023-03-28T10:57:46.134Z,6.88
2023-03-28T11:00:21.427Z,6.78
2023-03-28T11:03:14.001Z,6.93
2023-03-28T11:06:05.720Z,6.93
2023-03-28T11:08:54.257Z,7.02
2023-03-28T11:11:38.047Z,7.06
2023-03-28T11:14:21.066Z,6.98
2023-03-28T11:16:59.099Z,7.00
2023-03-28T11:19:45.337Z,7.08
2023-03-28T11:22:27.024Z,6.98
2023-03-28T11:25:06.588Z,7.06
2023-03-28T11:27:45.157Z,7.17
2023-03-28T11:30:18.732Z,7.16
2023-03-28T11:32:53.662Z,7.06
2023-03-28T11:35:29.099Z,7.13
2023-03-28T11:38:05.393Z,7.03
2023-03-28T11:40:40.039Z,7.08
2023-03-28T11:43:12.535Z,7.04
2023-03-28T11:45:52.097Z,7.12
2023-03-28T11:48:25.916Z,7.17
2023-03-28T11:51:05.179Z,7.20
2023-03-28T11:53:45.922Z,7.09
2023-03-28T11:56:26.727Z,7.14
2023-03-28T11:58:59.035Z,7.22
2023-03-28T12:01:32.668Z,7.18
2023-03-28T12:04:08.186Z,7.22
2023-03-28T12:06:52.302Z,7.19
2023-03-28T12:09:38.950Z,7.14
2023-03-28T12:12:15.449Z,7.24
2023-03-28T12:14:53.265Z,7.32
2023-03-28T12:17:26.296Z,7.38
2023-03-28T12:19:57.797Z,7.34
2023-03-28T12:22:32.712Z,7.31
2023-03-28T12:25:10.741Z,7.43
2023-03-28T12:27:53.518Z,7.26
2023-03-28T12:30:30.102Z,7.28
2023-03-28T12:33:07.345Z,7.33
2023-03-28T12:35:45.940Z,7.33
2023-03-28T12:38:24.936Z,7.32
2023-03-28T12:41:04.029Z,7.32
2023-03-28T12:43:44.249Z,7.20
2023-03-28T12:46:16.101Z,7.19
2023-03-28T12:48:47.978Z,7.29
2023-03-28T12:51:20.661Z,7.27
2023-03-28T12:54:03.825Z,7.24
2023-03-28T12:56:36.343Z,7.24
2023-03-28T12:59:37.531Z,7.29
2023-03-28T13:02:14.172Z,7.32
2023-03-28T13:04:50.653Z,7.34
2023-03-28T13:07:26.539Z,7.35
2023-03-28T13:10:04.596Z,7.29
2023-03-28T13:12:57.112Z,7.31
2023-03-28T13:15:32.998Z,7.34
2023-03-28T13:18:28.186Z,7.40
2023-03-28T13:20:57.826Z,7.37
2023-03-28T13:23:37.148Z,7.38
2023-03-28T13:26:08.859Z,7.32
2023-03-28T13:28:46.586Z,7.23
2023-03-28T13:31:23.391Z,7.29
2023-03-28T13:33:58.780Z,7.41
2023-03-28T13:36:30.864Z,7.40
2023-03-28T13:39:11.420Z,7.43
2023-03-28T13:41:59.481Z,7.37
2023-03-28T13:44:39.217Z,7.38
2023-03-28T13:47:09.042Z,7.43
2023-03-28T13:49:46.368Z,7.37
2023-03-28T13:52:20.855Z,7.36
2023-03-28T13:54:54.373Z,7.48
2023-03-28T13:57:26.477Z,7.50
2023-03-28T14:00:01.506Z,7.47
2023-03-28T14:02:38.712Z,7.49
2023-03-28T14:05:17.506Z,7.49
2023-03-28T14:07:46.906Z,7.64
2023-03-28T14:10:24.868Z,7.59
2023-03-28T14:12:56.043Z,7.54
2023-03-28T14:15:31.584Z,7.51
2023-03-28T14:18:02.702Z,7.61
2023-03-28T14:20:32.661Z,7.58
2023-03-28T14:23:02.480Z,7.61
2023-03-28T14:25:32.265Z,7.58
2023-03-28T14:28:10.233Z,7.62
2023-03-28T14:30:45.288Z,7.71
2023-03-28T14:33:22.311Z,7.66
2023-03-28T14:36:03.006Z,7.57
2023-03-28T14:38:36.286Z,7.75
2023-03-28T14:41:14.802Z,7.59
2023-03-28T14:43:44.311Z,7.70
2023-03-28T14:46:16.588Z,7.67
2023-03-28T14:48:45.922Z,7.77
2023-03-28T14:51:16.560Z,7.85
2023-03-28T14:53:48.536Z,8.00
2023-03-28T14:56:24.878Z,7.99
2023-03-28T14:58:57.986Z,7.91
2023-03-28T15:01:32.176Z,7.93
2023-03-28T15:04:08.310Z,8.03
2023-03-28T15:06:39.515Z,7.88
2023-03-28T15:09:13.957Z,7.87
2023-03-28T15:11:46.689Z,7.93
2023-03-28T15:14:19.569Z,7.95
2023-03-28T15:16:52.050Z,8.04
2023-03-28T15:19:25.352Z,8.08
2023-03-28T15:21:58.485Z,8.03
2023-03-28T15:24:29.575Z,8.23
2023-03-28T15:27:02.129Z,8.23
2023-03-28T15:29:36.195Z,8.20
2023-03-28T15:32:10.553Z,8.18
2023-03-28T15:34:50.548Z,8.20
2023-03-28T15:37:23.255Z,8.23
2023-03-28T15:39:53.195Z,8.32
2023-03-28T15:42:38.987Z,8.40
2023-03-28T15:45:23.622Z,8.31
2023-03-28T15:47:57.399Z,8.40
2023-03-28T15:50:34.054Z,8.40
2023-03-28T15:53:07.216Z,8.39
2023-03-28T15:55:37.692Z,8.34
2023-03-28T15:58:08.121Z,8.25
2023-03-28T16:00:40.176Z,8.45
2023-03-28T16:03:34.817Z,8.38
2023-03-28T16:06:31.862Z,8.34
2023-03-28T16:09:16.979Z,8.42
2023-03-28T16:11:47.605Z,8.42
2023-03-28T16:14:20.551Z,8.43
2023-03-28T16:16:50.238Z,8.38
2023-03-28T16:19:25.326Z,8.49
2023-03-28T16:21:54.674Z,8.40
2023-03-28T16:24:24.417Z,8.34
2023-03-28T16:26:53.821Z,8.41
2023-03-28T16:29:23.305Z,8.49
2023-03-28T16:31:52.825Z,8.45
2023-03-28T16:34:24.882Z,8.46
2023-03-28T16:36:56.283Z,8.43
2023-03-28T16:39:25.889Z,8.43
2023-03-28T16:41:55.413Z,8.43
2023-03-28T16:44:24.759Z,8.40
2023-03-28T16:46:55.279Z,8.39
2023-03-28T16:49:27.275Z,8.48
2023-03-28T16:51:56.791Z,8.41
2023-03-28T16:54:26.756Z,8.41
2023-03-28T16:56:57.278Z,8.47
2023-03-28T16:59:27.145Z,8.45
2023-03-28T17:01:57.449Z,8.49
2023-03-28T17:04:29.959Z,8.47
2023-03-28T17:06:59.729Z,8.46
2023-03-28T17:09:29.284Z,8.46
2023-03-28T17:11:58.848Z,8.40
2023-03-28T17:14:28.225Z,8.41
2023-03-28T17:16:57.599Z,8.43
2023-03-28T17:19:29.795Z,8.35
2023-03-28T17:22:00.641Z,8.47
2023-03-28T17:24:30.168Z,8.37
2023-03-28T17:26:59.721Z,8.37
2023-03-28T17:29:29.037Z,8.35
2023-03-28T17:31:58.463Z,8.37
2023-03-28T17:34:32.020Z,8.41
2023-03-28T17:37:01.572Z,8.37
2023-03-28T17:39:31.393Z,8.33
2023-03-28T17:42:00.878Z,8.32
2023-03-28T17:44:31.048Z,8.35
2023-03-28T17:47:00.865Z,8.40
2023-03-28T17:49:32.908Z,8.49
2023-03-28T17:52:02.307Z,8.38
2023-03-28T17:54:31.804Z,8.30
2023-03-28T17:57:01.919Z,8.42
2023-03-28T17:59:31.837Z,8.48
2023-03-28T18:02:01.485Z,8.33
2023-03-28T18:04:33.555Z,8.29
2023-03-28T18:07:02.877Z,8.39
2023-03-28T18:09:45.847Z,8.39
2023-03-28T18:12:16.598Z,8.32
2023-03-28T18:14:46.573Z,8.45
2023-03-28T18:17:16.058Z,8.50
2023-03-28T18:19:48.679Z,8.46
2023-03-28T18:22:18.239Z,8.45
2023-03-28T18:24:47.600Z,8.46
2023-03-28T18:27:19.210Z,8.48
2023-03-28T18:29:50.202Z,8.49
2023-03-28T18:32:19.648Z,8.46
2023-03-28T18:34:52.374Z,8.47
2023-03-28T18:37:21.739Z,8.49
2023-03-28T18:39:51.238Z,8.46
2023-03-28T18:42:20.579Z,8.42
2023-03-28T18:44:50.187Z,8.50
2023-03-28T18:47:20.388Z,8.53
2023-03-28T18:49:52.468Z,8.52
2023-03-28T18:52:21.972Z,8.44
2023-03-28T18:54:51.325Z,8.49
2023-03-28T18:57:20.785Z,8.43
2023-03-28T18:59:52.846Z,8.45
2023-03-28T19:02:23.019Z,8.50
2023-03-28T19:04:55.073Z,8.51
2023-03-28T19:07:24.433Z,8.56
2023-03-28T19:09:53.879Z,8.55
2023-03-28T19:12:23.489Z,8.56
2023-03-28T19:14:53.059Z,8.57
2023-03-28T19:17:22.588Z,8.54
2023-03-28T19:19:52.015Z,8.59
2023-03-28T19:22:23.969Z,8.56
2023-03-28T19:24:53.594Z,8.54
2023-03-28T19:27:23.032Z,8.52
2023-03-28T19:29:52.401Z,8.36
2023-03-28T19:32:22.111Z,8.46
2023-03-28T19:34:51.822Z,8.47
2023-03-28T19:37:23.881Z,8.40
2023-03-28T19:39:53.288Z,8.40
2023-03-28T19:42:22.819Z,8.23
2023-03-28T19:44:52.164Z,8.40
2023-03-28T19:47:21.768Z,8.29
2023-03-28T19:49:51.421Z,8.23
2023-03-28T19:52:20.848Z,8.33
2023-03-28T19:54:52.819Z,8.38
2023-03-28T19:57:22.213Z,8.30
2023-03-28T19:59:51.802Z,8.43
2023-03-28T20:02:21.129Z,8.31
2023-03-28T20:04:50.494Z,8.30
2023-03-28T20:07:21.337Z,8.19
2023-03-28T20:09:53.322Z,8.26
2023-03-28T20:12:23.061Z,8.27
2023-03-28T20:14:53.867Z,8.22
2023-03-28T20:17:24.547Z,8.14
2023-03-28T20:19:54.056Z,8.04
2023-03-28T20:22:24.589Z,8.09
2023-03-28T20:24:59.582Z,8.10
2023-03-28T20:27:29.308Z,7.76
2023-03-28T20:29:58.802Z,8.07
2023-03-28T20:32:28.273Z,7.92
2023-03-28T20:34:57.754Z,8.04
2023-03-28T20:37:27.501Z,7.93
2023-03-28T20:40:02.580Z,7.91
2023-03-28T20:42:32.600Z,8.10
2023-03-28T20:45:01.930Z,8.05
2023-03-28T20:47:31.348Z,8.00
2023-03-28T20:50:09.031Z,7.86
2023-03-28T20:52:40.050Z,7.81
2023-03-28T20:55:12.366Z,7.77
2023-03-28T20:57:43.307Z,7.90
2023-03-28T21:00:15.008Z,7.90
2023-03-28T21:02:46.382Z,7.81
2023-03-28T21:05:17.215Z,7.61
2023-03-28T21:07:46.592Z,7.71
2023-03-28T21:10:19.382Z,7.43
2023-03-28T21:12:49.474Z,7.41
2023-03-28T21:15:19.297Z,7.37
2023-03-28T21:17:53.677Z,7.43
2023-03-28T21:20:23.477Z,7.26
2023-03-28T21:22:53.822Z,7.41
2023-03-28T21:25:25.771Z,7.33
2023-03-28T21:27:55.249Z,7.33
2023-03-28T21:30:24.678Z,7.50
2023-03-28T21:32:54.590Z,7.60
2023-03-28T21:35:24.032Z,7.55
2023-03-28T21:37:53.366Z,7.48
2023-03-28T21:40:26.151Z,7.42
2023-03-28T21:42:55.507Z,7.51
2023-03-28T21:45:24.912Z,7.66
2023-03-28T21:47:54.343Z,7.21
2023-03-28T21:50:23.791Z,7.46
2023-03-28T21:52:53.158Z,7.40
2023-03-28T21:55:25.099Z,7.21
2023-03-28T21:57:54.400Z,7.18
2023-03-28T22:00:24.374Z,7.26
2023-03-28T22:02:54.388Z,7.15
2023-03-28T22:05:29.788Z,7.07
2023-03-28T22:07:59.784Z,7.11
2023-03-28T22:10:37.675Z,7.04
2023-03-28T22:13:07.964Z,7.01
2023-03-28T22:15:37.474Z,7.07
2023-03-28T22:18:09.235Z,7.08
2023-03-28T22:20:41.145Z,7.15
2023-03-28T22:23:10.795Z,7.22
2023-03-28T22:25:42.761Z,7.31
2023-03-28T22:28:14.026Z,7.06
2023-03-28T22:30:44.120Z,7.17
2023-03-28T22:33:13.823Z,7.23
2023-03-28T22:35:43.476Z,7.26
2023-03-28T22:38:12.807Z,7.28
2023-03-28T22:40:44.721Z,7.43
2023-03-28T22:43:14.156Z,7.31
2023-03-28T22:45:43.569Z,7.33
2023-03-28T22:48:14.699Z,7.39
2023-03-28T22:50:44.590Z,7.19
2023-03-28T22:53:14.932Z,7.18
2023-03-28T22:55:47.272Z,7.18
2023-03-28T22:58:17.400Z,7.41
2023-03-28T23:00:47.711Z,7.35
2023-03-28T23:03:18.149Z,7.34
2023-03-28T23:05:47.775Z,7.42
2023-03-28T23:08:17.094Z,7.32
2023-03-28T23:10:49.223Z,7.35
2023-03-28T23:13:19.226Z,7.27
2023-03-28T23:15:48.718Z,7.26
2023-03-28T23:18:18.069Z,7.49
2023-03-28T23:20:52.361Z,7.52
2023-03-28T23:23:21.711Z,7.56
2023-03-28T23:25:53.659Z,7.49
2023-03-28T23:28:23.061Z,7.56
2023-03-28T23:30:52.438Z,7.59
2023-03-28T23:33:21.815Z,7.56
2023-03-28T23:35:51.243Z,7.52
2023-03-28T23:38:20.612Z,7.55
2023-03-28T23:40:50.077Z,7.57
2023-03-28T23:43:21.979Z,7.56
2023-03-28T23:45:51.654Z,7.59
2023-03-28T23:48:21.313Z,7.58
2023-03-28T23:50:50.714Z,7.48
2023-03-28T23:53:20.115Z,7.52
2023-03-28T23:55:49.410Z,7.60
2023-03-28T23:58:18.742Z,7.49
